sensor_id;sensor_type;location;lat;lon;timestamp;temperature;humidity
5617;DHT22;2830;50.656;7.568;2022-09-20T00:01:30;8.60;18.10
5617;DHT22;2830;50.656;7.568;2022-09-20T00:03:59;8.60;18.00
5617;DHT22;2830;50.656;7.568;2022-09-20T00:06:28;8.50;16.50
5617;DHT22;2830;50.656;7.568;2022-09-20T00:08:56;8.40;16.60
5617;DHT22;2830;50.656;7.568;2022-09-20T00:11:27;8.30;15.90
5617;DHT22;2830;50.656;7.568;2022-09-20T00:13:55;8.30;16.00
5617;DHT22;2830;50.656;7.568;2022-09-20T00:16:25;8.20;15.40
5617;DHT22;2830;50.656;7.568;2022-09-20T00:18:54;8.20;16.40
5617;DHT22;2830;50.656;7.568;2022-09-20T00:21:26;8.10;17.50
5617;DHT22;2830;50.656;7.568;2022-09-20T00:23:54;8.10;15.80
5617;DHT22;2830;50.656;7.568;2022-09-20T00:26:23;8.00;14.50
5617;DHT22;2830;50.656;7.568;2022-09-20T00:28:50;7.90;14.70
5617;DHT22;2830;50.656;7.568;2022-09-20T00:31:17;7.80;12.40
5617;DHT22;2830;50.656;7.568;2022-09-20T00:33:45;7.80;14.80
5617;DHT22;2830;50.656;7.568;2022-09-20T00:36:30;7.80;13.90
5617;DHT22;2830;50.656;7.568;2022-09-20T00:38:59;7.70;12.40
5617;DHT22;2830;50.656;7.568;2022-09-20T00:41:27;7.70;13.10
5617;DHT22;2830;50.656;7.568;2022-09-20T00:43:54;7.70;13.20
5617;DHT22;2830;50.656;7.568;2022-09-20T00:46:28;7.60;12.20
5617;DHT22;2830;50.656;7.568;2022-09-20T00:49:06;7.60;11.70
5617;DHT22;2830;50.656;7.568;2022-09-20T00:51:40;7.60;12.60
5617;DHT22;2830;50.656;7.568;2022-09-20T00:54:10;7.50;9.90
5617;DHT22;2830;50.656;7.568;2022-09-20T00:56:43;7.50;11.20
5617;DHT22;2830;50.656;7.568;2022-09-20T00:59:37;7.40;10.50
5617;DHT22;2830;50.656;7.568;2022-09-20T01:02:30;7.40;10.80
5617;DHT22;2830;50.656;7.568;2022-09-20T01:04:56;7.40;10.10
5617;DHT22;2830;50.656;7.568;2022-09-20T01:07:24;7.30;11.30
5617;DHT22;2830;50.656;7.568;2022-09-20T01:09:51;7.30;8.80
5617;DHT22;2830;50.656;7.568;2022-09-20T01:12:24;7.20;8.30
5617;DHT22;2830;50.656;7.568;2022-09-20T01:14:52;7.20;8.20
5617;DHT22;2830;50.656;7.568;2022-09-20T01:17:23;7.20;8.20
5617;DHT22;2830;50.656;7.568;2022-09-20T01:22:52;7.10;6.80
5617;DHT22;2830;50.656;7.568;2022-09-20T01:28:22;7.00;4.70
5617;DHT22;2830;50.656;7.568;2022-09-20T01:36:15;7.00;12.90
5617;DHT22;2830;50.656;7.568;2022-09-20T01:46:55;7.00;9.00
5617;DHT22;2830;50.656;7.568;2022-09-20T01:55:56;6.90;10.50
5617;DHT22;2830;50.656;7.568;2022-09-20T01:58:14;6.80;8.00
5617;DHT22;2830;50.656;7.568;2022-09-20T02:04:03;6.70;7.00
5617;DHT22;2830;50.656;7.568;2022-09-20T02:12:51;6.60;4.80
5617;DHT22;2830;50.656;7.568;2022-09-20T02:21:34;6.60;9.30
5617;DHT22;2830;50.656;7.568;2022-09-20T02:27:25;6.50;6.90
5617;DHT22;2830;50.656;7.568;2022-09-20T02:33:16;6.40;6.10
5617;DHT22;2830;50.656;7.568;2022-09-20T02:38:58;6.40;8.50
5617;DHT22;2830;50.656;7.568;2022-09-20T02:41:54;6.40;9.10
5617;DHT22;2830;50.656;7.568;2022-09-20T02:50:17;6.50;9.70
5617;DHT22;2830;50.656;7.568;2022-09-20T02:56:07;6.60;13.90
5617;DHT22;2830;50.656;7.568;2022-09-20T02:58:56;6.80;15.90
5617;DHT22;2830;50.656;7.568;2022-09-20T03:01:43;6.90;19.30
5617;DHT22;2830;50.656;7.568;2022-09-20T03:04:36;7.00;20.00
5617;DHT22;2830;50.656;7.568;2022-09-20T03:10:06;7.20;19.60
5617;DHT22;2830;50.656;7.568;2022-09-20T03:12:48;7.40;20.70
5617;DHT22;2830;50.656;7.568;2022-09-20T03:15:21;7.50;19.30
5617;DHT22;2830;50.656;7.568;2022-09-20T03:18:10;7.60;19.10
5617;DHT22;2830;50.656;7.568;2022-09-20T03:26:57;7.90;21.60
5617;DHT22;2830;50.656;7.568;2022-09-20T03:29:39;7.90;22.90
5617;DHT22;2830;50.656;7.568;2022-09-20T03:32:43;8.10;26.20
5617;DHT22;2830;50.656;7.568;2022-09-20T03:38:53;8.20;22.50
5617;DHT22;2830;50.656;7.568;2022-09-20T03:41:49;8.20;23.90
5617;DHT22;2830;50.656;7.568;2022-09-20T03:44:40;8.30;25.70
5617;DHT22;2830;50.656;7.568;2022-09-20T03:56:20;8.60;29.50
5617;DHT22;2830;50.656;7.568;2022-09-20T04:02:27;8.70;30.60
5617;DHT22;2830;50.656;7.568;2022-09-20T04:07:45;8.90;36.40
5617;DHT22;2830;50.656;7.568;2022-09-20T04:13:39;9.10;38.60
5617;DHT22;2830;50.656;7.568;2022-09-20T04:16:22;9.10;38.40
5617;DHT22;2830;50.656;7.568;2022-09-20T04:18:56;9.10;38.30
5617;DHT22;2830;50.656;7.568;2022-09-20T04:21:44;9.20;39.40
5617;DHT22;2830;50.656;7.568;2022-09-20T04:30:32;9.30;40.40
5617;DHT22;2830;50.656;7.568;2022-09-20T04:33:04;9.40;41.00
5617;DHT22;2830;50.656;7.568;2022-09-20T04:38:38;9.60;42.80
5617;DHT22;2830;50.656;7.568;2022-09-20T04:44:19;9.70;43.60
5617;DHT22;2830;50.656;7.568;2022-09-20T04:47:22;9.80;43.80
5617;DHT22;2830;50.656;7.568;2022-09-20T04:52:47;9.70;43.30
5617;DHT22;2830;50.656;7.568;2022-09-20T05:12:26;9.80;43.40
5617;DHT22;2830;50.656;7.568;2022-09-20T05:17:57;9.70;42.10
5617;DHT22;2830;50.656;7.568;2022-09-20T05:26:24;9.70;45.50
5617;DHT22;2830;50.656;7.568;2022-09-20T05:29:17;9.70;44.20
5617;DHT22;2830;50.656;7.568;2022-09-20T05:31:53;9.80;46.30
5617;DHT22;2830;50.656;7.568;2022-09-20T05:34:55;9.80;44.70
5617;DHT22;2830;50.656;7.568;2022-09-20T05:37:43;9.90;45.20
5617;DHT22;2830;50.656;7.568;2022-09-20T05:45:46;10.10;46.30
5617;DHT22;2830;50.656;7.568;2022-09-20T05:48:51;10.20;45.70
5617;DHT22;2830;50.656;7.568;2022-09-20T06:00:19;10.30;44.10
5617;DHT22;2830;50.656;7.568;2022-09-20T06:06:03;10.50;43.70
5617;DHT22;2830;50.656;7.568;2022-09-20T06:12:19;10.70;38.00
5617;DHT22;2830;50.656;7.568;2022-09-20T06:17:52;10.90;33.60
5617;DHT22;2830;50.656;7.568;2022-09-20T06:20:46;10.90;31.00
5617;DHT22;2830;50.656;7.568;2022-09-20T06:23:14;11.10;30.80
5617;DHT22;2830;50.656;7.568;2022-09-20T06:25:45;11.10;26.50
5617;DHT22;2830;50.656;7.568;2022-09-20T06:28:17;11.20;26.00
5617;DHT22;2830;50.656;7.568;2022-09-20T06:30:52;11.30;24.60
5617;DHT22;2830;50.656;7.568;2022-09-20T06:33:22;11.40;16.50
5617;DHT22;2830;50.656;7.568;2022-09-20T06:36:06;11.40;9.70
5617;DHT22;2830;50.656;7.568;2022-09-20T06:39:14;11.40;11.40
5617;DHT22;2830;50.656;7.568;2022-09-20T06:42:01;11.40;2.80
5617;DHT22;2830;50.656;7.568;2022-09-20T06:44:27;11.50;1.00
5617;DHT22;2830;50.656;7.568;2022-09-20T06:46:54;11.60;1.00
5617;DHT22;2830;50.656;7.568;2022-09-20T06:49:22;11.60;1.00
5617;DHT22;2830;50.656;7.568;2022-09-20T06:51:49;11.70;1.00
5617;DHT22;2830;50.656;7.568;2022-09-20T06:54:17;11.90;1.00
5617;DHT22;2830;50.656;7.568;2022-09-20T06:56:45;11.80;1.00
5617;DHT22;2830;50.656;7.568;2022-09-20T06:59:12;11.80;1.00
5617;DHT22;2830;50.656;7.568;2022-09-20T07:01:41;11.80;1.00
5617;DHT22;2830;50.656;7.568;2022-09-20T07:04:08;11.80;1.00
5617;DHT22;2830;50.656;7.568;2022-09-20T07:06:35;11.80;1.00
5617;DHT22;2830;50.656;7.568;2022-09-20T07:09:03;11.90;1.00
5617;DHT22;2830;50.656;7.568;2022-09-20T07:11:31;11.90;1.00
5617;DHT22;2830;50.656;7.568;2022-09-20T07:14:00;12.00;1.00
5617;DHT22;2830;50.656;7.568;2022-09-20T07:16:26;12.00;1.00
5617;DHT22;2830;50.656;7.568;2022-09-20T07:18:53;12.10;1.00
5617;DHT22;2830;50.656;7.568;2022-09-20T07:21:21;12.00;1.00
5617;DHT22;2830;50.656;7.568;2022-09-20T07:23:48;12.00;1.00
5617;DHT22;2830;50.656;7.568;2022-09-20T07:26:17;12.00;1.00
5617;DHT22;2830;50.656;7.568;2022-09-20T07:28:44;12.00;1.00
5617;DHT22;2830;50.656;7.568;2022-09-20T07:31:11;12.20;1.00
5617;DHT22;2830;50.656;7.568;2022-09-20T07:33:38;12.30;1.00
5617;DHT22;2830;50.656;7.568;2022-09-20T07:36:04;12.50;1.00
5617;DHT22;2830;50.656;7.568;2022-09-20T07:38:31;12.70;1.00
5617;DHT22;2830;50.656;7.568;2022-09-20T07:40:59;12.80;1.00
5617;DHT22;2830;50.656;7.568;2022-09-20T07:43:29;12.90;1.00
5617;DHT22;2830;50.656;7.568;2022-09-20T07:45:57;13.00;1.00
5617;DHT22;2830;50.656;7.568;2022-09-20T07:48:28;13.00;1.00
5617;DHT22;2830;50.656;7.568;2022-09-20T07:51:06;12.90;1.00
5617;DHT22;2830;50.656;7.568;2022-09-20T07:53:35;12.80;1.00
5617;DHT22;2830;50.656;7.568;2022-09-20T07:56:13;12.90;1.00
5617;DHT22;2830;50.656;7.568;2022-09-20T07:58:42;12.90;1.00
5617;DHT22;2830;50.656;7.568;2022-09-20T08:01:18;12.70;1.00
5617;DHT22;2830;50.656;7.568;2022-09-20T08:03:46;12.60;1.00
5617;DHT22;2830;50.656;7.568;2022-09-20T08:06:13;12.60;1.00
5617;DHT22;2830;50.656;7.568;2022-09-20T08:08:43;12.70;1.00
5617;DHT22;2830;50.656;7.568;2022-09-20T08:11:15;12.90;1.00
5617;DHT22;2830;50.656;7.568;2022-09-20T08:13:47;13.90;1.00
5617;DHT22;2830;50.656;7.568;2022-09-20T08:16:39;15.00;99.90
5617;DHT22;2830;50.656;7.568;2022-09-20T08:19:06;15.60;99.90
5617;DHT22;2830;50.656;7.568;2022-09-20T08:21:34;16.10;99.90
5617;DHT22;2830;50.656;7.568;2022-09-20T08:24:01;16.00;99.90
5617;DHT22;2830;50.656;7.568;2022-09-20T08:26:29;15.70;90.40
5617;DHT22;2830;50.656;7.568;2022-09-20T08:29:01;15.80;99.90
5617;DHT22;2830;50.656;7.568;2022-09-20T08:31:29;16.80;1.00
5617;DHT22;2830;50.656;7.568;2022-09-20T08:33:59;17.30;99.90
5617;DHT22;2830;50.656;7.568;2022-09-20T08:36:31;17.00;99.90
5617;DHT22;2830;50.656;7.568;2022-09-20T08:39:03;16.60;99.90
5617;DHT22;2830;50.656;7.568;2022-09-20T08:42:04;16.40;1.00
5617;DHT22;2830;50.656;7.568;2022-09-20T08:44:42;17.00;36.20
5617;DHT22;2830;50.656;7.568;2022-09-20T08:47:22;17.50;99.90
5617;DHT22;2830;50.656;7.568;2022-09-20T08:49:51;16.60;64.40
5617;DHT22;2830;50.656;7.568;2022-09-20T08:52:31;16.10;1.00
5617;DHT22;2830;50.656;7.568;2022-09-20T08:55:15;15.60;99.90
5617;DHT22;2830;50.656;7.568;2022-09-20T08:57:43;15.30;99.90
5617;DHT22;2830;50.656;7.568;2022-09-20T09:00:20;14.90;99.90
5617;DHT22;2830;50.656;7.568;2022-09-20T09:02:51;15.40;1.00
5617;DHT22;2830;50.656;7.568;2022-09-20T09:08:19;18.80;99.90
5617;DHT22;2830;50.656;7.568;2022-09-20T09:13:59;19.10;1.00
5617;DHT22;2830;50.656;7.568;2022-09-20T09:16:29;18.90;1.00
5617;DHT22;2830;50.656;7.568;2022-09-20T09:19:27;18.60;1.00
5617;DHT22;2830;50.656;7.568;2022-09-20T09:22:03;19.30;99.90
5617;DHT22;2830;50.656;7.568;2022-09-20T09:24:31;19.60;99.90
5617;DHT22;2830;50.656;7.568;2022-09-20T09:27:18;18.70;99.90
5617;DHT22;2830;50.656;7.568;2022-09-20T09:29:53;17.70;1.00
5617;DHT22;2830;50.656;7.568;2022-09-20T09:32:27;17.60;99.90
5617;DHT22;2830;50.656;7.568;2022-09-20T09:34:55;17.70;1.00
5617;DHT22;2830;50.656;7.568;2022-09-20T09:37:26;17.70;1.00
5617;DHT22;2830;50.656;7.568;2022-09-20T09:40:24;17.80;1.00
5617;DHT22;2830;50.656;7.568;2022-09-20T09:42:57;17.10;1.00
5617;DHT22;2830;50.656;7.568;2022-09-20T09:45:35;16.50;1.00
5617;DHT22;2830;50.656;7.568;2022-09-20T09:48:25;16.40;1.00
5617;DHT22;2830;50.656;7.568;2022-09-20T09:51:13;15.80;1.00
5617;DHT22;2830;50.656;7.568;2022-09-20T09:53:44;15.40;99.90
5617;DHT22;2830;50.656;7.568;2022-09-20T09:59:31;15.00;1.00
5617;DHT22;2830;50.656;7.568;2022-09-20T10:02:21;14.80;1.00
5617;DHT22;2830;50.656;7.568;2022-09-20T10:05:02;14.70;1.00
5617;DHT22;2830;50.656;7.568;2022-09-20T10:07:45;14.60;99.90
5617;DHT22;2830;50.656;7.568;2022-09-20T10:10:31;14.70;26.50
5617;DHT22;2830;50.656;7.568;2022-09-20T10:18:23;14.60;99.90
5617;DHT22;2830;50.656;7.568;2022-09-20T10:21:05;14.60;99.90
5617;DHT22;2830;50.656;7.568;2022-09-20T10:34:45;14.60;99.90
5617;DHT22;2830;50.656;7.568;2022-09-20T10:37:40;15.10;99.90
5617;DHT22;2830;50.656;7.568;2022-09-20T10:42:51;16.00;1.00
5617;DHT22;2830;50.656;7.568;2022-09-20T10:48:47;17.20;99.90
5617;DHT22;2830;50.656;7.568;2022-09-20T10:51:35;17.80;1.00
5617;DHT22;2830;50.656;7.568;2022-09-20T10:56:49;18.20;99.90
5617;DHT22;2830;50.656;7.568;2022-09-20T10:59:35;19.50;99.90
5617;DHT22;2830;50.656;7.568;2022-09-20T11:08:02;21.10;99.90
5617;DHT22;2830;50.656;7.568;2022-09-20T11:10:35;19.70;99.90
5617;DHT22;2830;50.656;7.568;2022-09-20T11:19:00;16.30;1.00
5617;DHT22;2830;50.656;7.568;2022-09-20T11:21:44;15.70;96.40
5617;DHT22;2830;50.656;7.568;2022-09-20T11:26:58;14.90;99.90
5617;DHT22;2830;50.656;7.568;2022-09-20T11:29:44;14.50;1.00
5617;DHT22;2830;50.656;7.568;2022-09-20T11:32:24;14.40;99.90
5617;DHT22;2830;50.656;7.568;2022-09-20T11:35:00;13.90;99.90
5617;DHT22;2830;50.656;7.568;2022-09-20T11:37:33;13.60;1.00
5617;DHT22;2830;50.656;7.568;2022-09-20T11:40:14;13.30;99.90
5617;DHT22;2830;50.656;7.568;2022-09-20T11:42:42;13.20;1.00
5617;DHT22;2830;50.656;7.568;2022-09-20T11:45:11;13.20;1.00
5617;DHT22;2830;50.656;7.568;2022-09-20T11:47:47;13.10;1.00
5617;DHT22;2830;50.656;7.568;2022-09-20T11:50:49;13.10;1.00
5617;DHT22;2830;50.656;7.568;2022-09-20T11:53:38;13.10;1.00
5617;DHT22;2830;50.656;7.568;2022-09-20T11:56:20;13.30;1.00
5617;DHT22;2830;50.656;7.568;2022-09-20T11:58:53;13.40;1.00
5617;DHT22;2830;50.656;7.568;2022-09-20T12:01:34;13.60;1.00
5617;DHT22;2830;50.656;7.568;2022-09-20T12:04:19;13.80;1.00
5617;DHT22;2830;50.656;7.568;2022-09-20T12:07:13;14.50;1.00
5617;DHT22;2830;50.656;7.568;2022-09-20T12:09:56;15.20;99.90
5617;DHT22;2830;50.656;7.568;2022-09-20T12:12:42;15.70;1.00
5617;DHT22;2830;50.656;7.568;2022-09-20T12:15:33;16.40;99.90
5617;DHT22;2830;50.656;7.568;2022-09-20T12:18:07;16.80;99.90
5617;DHT22;2830;50.656;7.568;2022-09-20T12:26:10;17.40;99.90
5617;DHT22;2830;50.656;7.568;2022-09-20T12:28:45;17.10;1.00
5617;DHT22;2830;50.656;7.568;2022-09-20T12:39:23;17.40;1.00
5617;DHT22;2830;50.656;7.568;2022-09-20T12:44:37;19.10;1.00
5617;DHT22;2830;50.656;7.568;2022-09-20T12:55:42;20.90;99.90
5617;DHT22;2830;50.656;7.568;2022-09-20T13:00:49;19.80;99.90
5617;DHT22;2830;50.656;7.568;2022-09-20T13:03:29;19.30;99.90
5617;DHT22;2830;50.656;7.568;2022-09-20T13:11:15;17.10;99.90
5617;DHT22;2830;50.656;7.568;2022-09-20T13:17:05;15.70;1.00
5617;DHT22;2830;50.656;7.568;2022-09-20T13:19:39;15.30;1.00
5617;DHT22;2830;50.656;7.568;2022-09-20T13:22:16;15.40;99.90
5617;DHT22;2830;50.656;7.568;2022-09-20T13:24:50;15.30;99.90
5617;DHT22;2830;50.656;7.568;2022-09-20T13:27:29;15.20;99.90
5617;DHT22;2830;50.656;7.568;2022-09-20T13:30:33;15.00;1.00
5617;DHT22;2830;50.656;7.568;2022-09-20T13:33:21;14.70;1.00
5617;DHT22;2830;50.656;7.568;2022-09-20T13:35:53;14.60;1.00
5617;DHT22;2830;50.656;7.568;2022-09-20T13:38:27;14.60;99.90
5617;DHT22;2830;50.656;7.568;2022-09-20T13:41:04;14.70;1.00
5617;DHT22;2830;50.656;7.568;2022-09-20T13:43:39;14.80;99.90
5617;DHT22;2830;50.656;7.568;2022-09-20T13:46:09;14.80;17.60
5617;DHT22;2830;50.656;7.568;2022-09-20T13:48:37;14.80;59.50
5617;DHT22;2830;50.656;7.568;2022-09-20T13:51:24;14.80;1.00
5617;DHT22;2830;50.656;7.568;2022-09-20T13:53:51;14.70;50.90
5617;DHT22;2830;50.656;7.568;2022-09-20T13:56:26;14.60;59.50
5617;DHT22;2830;50.656;7.568;2022-09-20T13:58:54;14.60;1.00
5617;DHT22;2830;50.656;7.568;2022-09-20T14:01:31;14.50;1.00
5617;DHT22;2830;50.656;7.568;2022-09-20T14:04:14;14.30;1.00
5617;DHT22;2830;50.656;7.568;2022-09-20T14:06:41;14.10;99.90
5617;DHT22;2830;50.656;7.568;2022-09-20T14:09:20;14.00;1.00
5617;DHT22;2830;50.656;7.568;2022-09-20T14:11:48;13.90;99.90
5617;DHT22;2830;50.656;7.568;2022-09-20T14:14:15;14.10;99.90
5617;DHT22;2830;50.656;7.568;2022-09-20T14:16:48;14.20;99.90
5617;DHT22;2830;50.656;7.568;2022-09-20T14:19:19;14.40;1.00
5617;DHT22;2830;50.656;7.568;2022-09-20T14:21:46;14.50;99.90
5617;DHT22;2830;50.656;7.568;2022-09-20T14:26:41;14.70;1.00
5617;DHT22;2830;50.656;7.568;2022-09-20T14:32:24;14.70;99.90
5617;DHT22;2830;50.656;7.568;2022-09-20T14:37:28;14.70;1.00
5617;DHT22;2830;50.656;7.568;2022-09-20T14:39:58;14.80;16.60
5617;DHT22;2830;50.656;7.568;2022-09-20T14:42:32;15.00;1.00
5617;DHT22;2830;50.656;7.568;2022-09-20T14:44:59;15.10;1.00
5617;DHT22;2830;50.656;7.568;2022-09-20T14:47:53;15.30;99.90
5617;DHT22;2830;50.656;7.568;2022-09-20T14:50:25;15.40;1.00
5617;DHT22;2830;50.656;7.568;2022-09-20T14:53:00;15.40;1.00
5617;DHT22;2830;50.656;7.568;2022-09-20T14:55:27;15.50;1.00
5617;DHT22;2830;50.656;7.568;2022-09-20T14:58:11;15.40;1.00
5617;DHT22;2830;50.656;7.568;2022-09-20T15:01:23;15.40;8.70
5617;DHT22;2830;50.656;7.568;2022-09-20T15:03:50;15.30;99.90
5617;DHT22;2830;50.656;7.568;2022-09-20T15:06:17;15.20;1.00
5617;DHT22;2830;50.656;7.568;2022-09-20T15:08:45;15.10;99.90
5617;DHT22;2830;50.656;7.568;2022-09-20T15:11:18;15.10;99.90
5617;DHT22;2830;50.656;7.568;2022-09-20T15:13:45;15.00;9.60
5617;DHT22;2830;50.656;7.568;2022-09-20T15:16:14;14.90;1.00
5617;DHT22;2830;50.656;7.568;2022-09-20T15:18:43;14.90;1.00
5617;DHT22;2830;50.656;7.568;2022-09-20T15:21:10;14.80;99.90
5617;DHT22;2830;50.656;7.568;2022-09-20T15:23:37;14.60;1.00
5617;DHT22;2830;50.656;7.568;2022-09-20T15:26:05;14.40;54.50
5617;DHT22;2830;50.656;7.568;2022-09-20T15:28:33;14.20;1.00
5617;DHT22;2830;50.656;7.568;2022-09-20T15:30:59;14.10;99.90
5617;DHT22;2830;50.656;7.568;2022-09-20T15:33:28;14.10;1.00
5617;DHT22;2830;50.656;7.568;2022-09-20T15:35:55;14.00;99.90
5617;DHT22;2830;50.656;7.568;2022-09-20T15:38:22;14.00;99.90
5617;DHT22;2830;50.656;7.568;2022-09-20T15:40:52;13.90;99.90
5617;DHT22;2830;50.656;7.568;2022-09-20T15:43:21;13.90;1.00
5617;DHT22;2830;50.656;7.568;2022-09-20T15:45:51;14.00;1.00
5617;DHT22;2830;50.656;7.568;2022-09-20T15:48:19;14.00;99.90
5617;DHT22;2830;50.656;7.568;2022-09-20T15:53:35;13.90;99.90
5617;DHT22;2830;50.656;7.568;2022-09-20T15:56:06;13.90;1.00
5617;DHT22;2830;50.656;7.568;2022-09-20T15:58:43;13.90;1.00
5617;DHT22;2830;50.656;7.568;2022-09-20T16:01:11;13.90;99.90
5617;DHT22;2830;50.656;7.568;2022-09-20T16:03:38;13.90;99.90
5617;DHT22;2830;50.656;7.568;2022-09-20T16:06:05;13.90;99.90
5617;DHT22;2830;50.656;7.568;2022-09-20T16:08:35;13.80;99.90
5617;DHT22;2830;50.656;7.568;2022-09-20T16:11:04;13.70;1.00
5617;DHT22;2830;50.656;7.568;2022-09-20T16:13:31;13.70;99.90
5617;DHT22;2830;50.656;7.568;2022-09-20T16:16:01;13.70;99.90
5617;DHT22;2830;50.656;7.568;2022-09-20T16:18:29;13.60;1.00
5617;DHT22;2830;50.656;7.568;2022-09-20T16:21:16;13.50;1.00
5617;DHT22;2830;50.656;7.568;2022-09-20T16:23:51;13.40;1.00
5617;DHT22;2830;50.656;7.568;2022-09-20T16:26:19;13.40;1.00
5617;DHT22;2830;50.656;7.568;2022-09-20T16:28:47;13.40;1.00
5617;DHT22;2830;50.656;7.568;2022-09-20T16:31:38;13.40;89.90
5617;DHT22;2830;50.656;7.568;2022-09-20T16:34:18;13.40;1.00
5617;DHT22;2830;50.656;7.568;2022-09-20T16:36:50;13.50;1.00
5617;DHT22;2830;50.656;7.568;2022-09-20T16:39:19;13.50;1.00
5617;DHT22;2830;50.656;7.568;2022-09-20T16:41:47;13.50;1.00
5617;DHT22;2830;50.656;7.568;2022-09-20T16:44:14;13.50;1.00
5617;DHT22;2830;50.656;7.568;2022-09-20T16:46:41;13.50;1.00
5617;DHT22;2830;50.656;7.568;2022-09-20T16:49:10;13.50;1.00
5617;DHT22;2830;50.656;7.568;2022-09-20T16:51:39;13.50;1.00
5617;DHT22;2830;50.656;7.568;2022-09-20T16:54:08;13.40;1.00
5617;DHT22;2830;50.656;7.568;2022-09-20T16:56:41;13.40;1.00
5617;DHT22;2830;50.656;7.568;2022-09-20T16:59:08;13.30;5.40
5617;DHT22;2830;50.656;7.568;2022-09-20T17:01:35;13.30;1.00
5617;DHT22;2830;50.656;7.568;2022-09-20T17:04:05;13.20;99.90
5617;DHT22;2830;50.656;7.568;2022-09-20T17:06:34;13.30;99.90
5617;DHT22;2830;50.656;7.568;2022-09-20T17:09:03;13.20;99.90
5617;DHT22;2830;50.656;7.568;2022-09-20T17:11:36;13.20;99.90
5617;DHT22;2830;50.656;7.568;2022-09-20T17:14:04;13.10;99.90
5617;DHT22;2830;50.656;7.568;2022-09-20T17:16:33;13.20;99.90
5617;DHT22;2830;50.656;7.568;2022-09-20T17:19:03;13.20;99.90
5617;DHT22;2830;50.656;7.568;2022-09-20T17:21:35;13.20;99.90
5617;DHT22;2830;50.656;7.568;2022-09-20T17:24:03;13.20;99.90
5617;DHT22;2830;50.656;7.568;2022-09-20T17:26:32;13.10;1.00
5617;DHT22;2830;50.656;7.568;2022-09-20T17:29:01;13.10;99.90
5617;DHT22;2830;50.656;7.568;2022-09-20T17:31:33;13.00;99.90
5617;DHT22;2830;50.656;7.568;2022-09-20T17:34:01;12.90;99.90
5617;DHT22;2830;50.656;7.568;2022-09-20T17:36:40;12.80;99.90
5617;DHT22;2830;50.656;7.568;2022-09-20T17:39:09;12.70;1.00
5617;DHT22;2830;50.656;7.568;2022-09-20T17:41:45;12.60;1.00
5617;DHT22;2830;50.656;7.568;2022-09-20T17:44:12;12.50;1.00
5617;DHT22;2830;50.656;7.568;2022-09-20T17:46:41;12.40;1.00
5617;DHT22;2830;50.656;7.568;2022-09-20T17:49:10;12.30;1.00
5617;DHT22;2830;50.656;7.568;2022-09-20T17:51:40;12.30;1.00
5617;DHT22;2830;50.656;7.568;2022-09-20T17:54:07;12.20;1.00
5617;DHT22;2830;50.656;7.568;2022-09-20T17:56:39;12.20;1.00
5617;DHT22;2830;50.656;7.568;2022-09-20T17:59:07;12.20;1.00
5617;DHT22;2830;50.656;7.568;2022-09-20T18:01:35;12.20;1.00
5617;DHT22;2830;50.656;7.568;2022-09-20T18:04:04;12.20;1.00
5617;DHT22;2830;50.656;7.568;2022-09-20T18:06:32;12.10;1.00
5617;DHT22;2830;50.656;7.568;2022-09-20T18:09:03;12.10;1.00
5617;DHT22;2830;50.656;7.568;2022-09-20T18:11:36;12.00;1.00
5617;DHT22;2830;50.656;7.568;2022-09-20T18:14:04;11.90;1.00
5617;DHT22;2830;50.656;7.568;2022-09-20T18:16:32;11.80;1.00
5617;DHT22;2830;50.656;7.568;2022-09-20T18:19:00;11.80;1.00
5617;DHT22;2830;50.656;7.568;2022-09-20T18:21:29;11.80;1.00
5617;DHT22;2830;50.656;7.568;2022-09-20T18:23:56;11.80;1.00
5617;DHT22;2830;50.656;7.568;2022-09-20T18:26:26;11.80;1.00
5617;DHT22;2830;50.656;7.568;2022-09-20T18:31:27;11.80;1.00
5617;DHT22;2830;50.656;7.568;2022-09-20T18:33:59;11.70;1.00
5617;DHT22;2830;50.656;7.568;2022-09-20T18:36:27;11.60;1.00
5617;DHT22;2830;50.656;7.568;2022-09-20T18:38:55;11.70;1.00
5617;DHT22;2830;50.656;7.568;2022-09-20T18:41:25;11.60;1.00
5617;DHT22;2830;50.656;7.568;2022-09-20T18:43:53;11.70;1.00
5617;DHT22;2830;50.656;7.568;2022-09-20T18:46:22;11.70;1.00
5617;DHT22;2830;50.656;7.568;2022-09-20T18:48:51;11.60;1.00
5617;DHT22;2830;50.656;7.568;2022-09-20T18:51:19;11.50;1.00
5617;DHT22;2830;50.656;7.568;2022-09-20T18:53:46;11.50;1.00
5617;DHT22;2830;50.656;7.568;2022-09-20T18:58:57;11.40;1.00
5617;DHT22;2830;50.656;7.568;2022-09-20T19:04:53;11.20;1.00
5617;DHT22;2830;50.656;7.568;2022-09-20T19:09:58;11.00;1.30
5617;DHT22;2830;50.656;7.568;2022-09-20T19:12:52;11.00;6.60
5617;DHT22;2830;50.656;7.568;2022-09-20T19:21:38;10.70;3.30
5617;DHT22;2830;50.656;7.568;2022-09-20T19:24:41;10.60;5.50
5617;DHT22;2830;50.656;7.568;2022-09-20T19:27:11;10.70;11.80
5617;DHT22;2830;50.656;7.568;2022-09-20T19:29:39;10.70;10.60
5617;DHT22;2830;50.656;7.568;2022-09-20T19:32:12;10.60;8.70
5617;DHT22;2830;50.656;7.568;2022-09-20T19:34:42;10.50;7.50
5617;DHT22;2830;50.656;7.568;2022-09-20T19:37:29;10.40;6.10
5617;DHT22;2830;50.656;7.568;2022-09-20T19:40:26;10.30;3.10
5617;DHT22;2830;50.656;7.568;2022-09-20T19:43:14;10.20;1.00
5617;DHT22;2830;50.656;7.568;2022-09-20T19:48:28;10.00;1.00
5617;DHT22;2830;50.656;7.568;2022-09-20T19:51:01;9.90;1.00
5617;DHT22;2830;50.656;7.568;2022-09-20T19:53:29;9.70;1.00
5617;DHT22;2830;50.656;7.568;2022-09-20T19:56:01;9.60;1.00
5617;DHT22;2830;50.656;7.568;2022-09-20T19:58:29;9.60;1.00
5617;DHT22;2830;50.656;7.568;2022-09-20T20:00:56;9.60;3.20
5617;DHT22;2830;50.656;7.568;2022-09-20T20:03:23;9.50;1.90
5617;DHT22;2830;50.656;7.568;2022-09-20T20:06:07;9.30;1.00
5617;DHT22;2830;50.656;7.568;2022-09-20T20:08:45;9.20;1.00
5617;DHT22;2830;50.656;7.568;2022-09-20T20:11:37;9.20;5.30
5617;DHT22;2830;50.656;7.568;2022-09-20T20:14:47;9.20;6.30
5617;DHT22;2830;50.656;7.568;2022-09-20T20:17:39;9.20;5.20
5617;DHT22;2830;50.656;7.568;2022-09-20T20:25:54;9.00;1.00
5617;DHT22;2830;50.656;7.568;2022-09-20T20:28:25;9.00;1.60
5617;DHT22;2830;50.656;7.568;2022-09-20T20:30:52;8.90;1.70
5617;DHT22;2830;50.656;7.568;2022-09-20T20:33:25;8.90;2.00
5617;DHT22;2830;50.656;7.568;2022-09-20T20:35:57;8.80;1.00
5617;DHT22;2830;50.656;7.568;2022-09-20T20:38:25;8.70;1.00
5617;DHT22;2830;50.656;7.568;2022-09-20T20:40:59;8.80;1.00
5617;DHT22;2830;50.656;7.568;2022-09-20T20:43:30;8.70;1.30
5617;DHT22;2830;50.656;7.568;2022-09-20T20:45:57;8.70;1.00
5617;DHT22;2830;50.656;7.568;2022-09-20T20:48:24;8.60;1.00
5617;DHT22;2830;50.656;7.568;2022-09-20T20:51:18;8.60;1.00
5617;DHT22;2830;50.656;7.568;2022-09-20T20:53:47;8.60;1.00
5617;DHT22;2830;50.656;7.568;2022-09-20T20:56:20;8.50;1.00
5617;DHT22;2830;50.656;7.568;2022-09-20T20:58:47;8.50;1.00
5617;DHT22;2830;50.656;7.568;2022-09-20T21:01:19;8.40;1.00
5617;DHT22;2830;50.656;7.568;2022-09-20T21:03:48;8.50;1.00
5617;DHT22;2830;50.656;7.568;2022-09-20T21:06:15;8.40;1.00
5617;DHT22;2830;50.656;7.568;2022-09-20T21:08:44;8.50;1.00
5617;DHT22;2830;50.656;7.568;2022-09-20T21:11:20;8.50;2.80
5617;DHT22;2830;50.656;7.568;2022-09-20T21:13:53;8.50;1.00
5617;DHT22;2830;50.656;7.568;2022-09-20T21:16:24;8.50;2.00
5617;DHT22;2830;50.656;7.568;2022-09-20T21:18:51;8.60;4.80
5617;DHT22;2830;50.656;7.568;2022-09-20T21:21:23;8.60;4.40
5617;DHT22;2830;50.656;7.568;2022-09-20T21:23:53;8.70;4.70
5617;DHT22;2830;50.656;7.568;2022-09-20T21:26:21;8.70;5.10
5617;DHT22;2830;50.656;7.568;2022-09-20T21:28:50;8.80;8.60
5617;DHT22;2830;50.656;7.568;2022-09-20T21:31:19;8.80;6.50
5617;DHT22;2830;50.656;7.568;2022-09-20T21:33:46;8.70;4.70
5617;DHT22;2830;50.656;7.568;2022-09-20T21:36:15;8.80;6.50
5617;DHT22;2830;50.656;7.568;2022-09-20T21:38:43;8.70;1.40
5617;DHT22;2830;50.656;7.568;2022-09-20T21:41:13;8.80;7.90